sensor_id;sensor_type;location;lat;lon;timestamp;temperature;humidity
21216;DHT22;10765;50.954;5.322;2023-04-03T00:00:50;2.20;99.90
21216;DHT22;10765;50.954;5.322;2023-04-03T00:03:17;2.20;99.90
21216;DHT22;10765;50.954;5.322;2023-04-03T00:05:46;2.10;99.90
21216;DHT22;10765;50.954;5.322;2023-04-03T00:08:15;2.10;99.90
21216;DHT22;10765;50.954;5.322;2023-04-03T00:10:41;2.00;99.90
21216;DHT22;10765;50.954;5.322;2023-04-03T00:13:09;2.00;1.00
21216;DHT22;10765;50.954;5.322;2023-04-03T00:15:36;2.00;1.00
21216;DHT22;10765;50.954;5.322;2023-04-03T00:18:03;2.00;1.00
21216;DHT22;10765;50.954;5.322;2023-04-03T00:20:30;2.00;99.90
21216;DHT22;10765;50.954;5.322;2023-04-03T00:22:57;2.00;1.00
21216;DHT22;10765;50.954;5.322;2023-04-03T00:25:26;2.00;1.00
21216;DHT22;10765;50.954;5.322;2023-04-03T00:27:53;2.00;1.00
21216;DHT22;10765;50.954;5.322;2023-04-03T00:30:22;2.00;99.90
21216;DHT22;10765;50.954;5.322;2023-04-03T00:32:49;1.90;1.00
21216;DHT22;10765;50.954;5.322;2023-04-03T00:35:17;1.90;1.00
21216;DHT22;10765;50.954;5.322;2023-04-03T00:37:44;1.90;97.40
21216;DHT22;10765;50.954;5.322;2023-04-03T00:40:13;2.00;1.00
21216;DHT22;10765;50.954;5.322;2023-04-03T00:42:42;2.00;1.00
21216;DHT22;10765;50.954;5.322;2023-04-03T00:45:26;1.90;1.00
21216;DHT22;10765;50.954;5.322;2023-04-03T00:47:53;1.90;1.00
21216;DHT22;10765;50.954;5.322;2023-04-03T00:50:21;1.90;1.00
21216;DHT22;10765;50.954;5.322;2023-04-03T00:52:48;1.90;99.90
21216;DHT22;10765;50.954;5.322;2023-04-03T00:55:15;1.80;99.90
21216;DHT22;10765;50.954;5.322;2023-04-03T00:57:44;1.90;1.00
21216;DHT22;10765;50.954;5.322;2023-04-03T01:00:14;1.80;99.90
21216;DHT22;10765;50.954;5.322;2023-04-03T01:02:42;1.70;99.90
21216;DHT22;10765;50.954;5.322;2023-04-03T01:05:10;1.80;99.90
21216;DHT22;10765;50.954;5.322;2023-04-03T01:07:38;1.70;99.90
21216;DHT22;10765;50.954;5.322;2023-04-03T01:10:09;1.60;99.90
21216;DHT22;10765;50.954;5.322;2023-04-03T01:12:40;1.60;1.00
21216;DHT22;10765;50.954;5.322;2023-04-03T01:15:11;1.60;99.90
21216;DHT22;10765;50.954;5.322;2023-04-03T01:17:40;1.60;1.00
21216;DHT22;10765;50.954;5.322;2023-04-03T01:20:34;1.60;1.00
21216;DHT22;10765;50.954;5.322;2023-04-03T01:23:17;1.60;1.00
21216;DHT22;10765;50.954;5.322;2023-04-03T01:25:48;1.60;99.90
21216;DHT22;10765;50.954;5.322;2023-04-03T01:28:18;1.50;73.50
21216;DHT22;10765;50.954;5.322;2023-04-03T01:30:50;1.50;99.90
21216;DHT22;10765;50.954;5.322;2023-04-03T01:33:19;1.60;1.00
21216;DHT22;10765;50.954;5.322;2023-04-03T01:35:46;1.60;1.00
21216;DHT22;10765;50.954;5.322;2023-04-03T01:38:13;1.60;1.00
21216;DHT22;10765;50.954;5.322;2023-04-03T01:40:40;1.50;1.00
21216;DHT22;10765;50.954;5.322;2023-04-03T01:43:07;1.50;72.70
21216;DHT22;10765;50.954;5.322;2023-04-03T01:45:34;1.50;1.00
21216;DHT22;10765;50.954;5.322;2023-04-03T01:48:01;1.40;1.00
21216;DHT22;10765;50.954;5.322;2023-04-03T01:50:29;1.40;1.00
21216;DHT22;10765;50.954;5.322;2023-04-03T01:52:56;1.40;1.00
21216;DHT22;10765;50.954;5.322;2023-04-03T01:55:23;1.30;1.00
21216;DHT22;10765;50.954;5.322;2023-04-03T01:57:50;1.30;1.00
21216;DHT22;10765;50.954;5.322;2023-04-03T02:00:17;1.30;1.00
21216;DHT22;10765;50.954;5.322;2023-04-03T02:02:46;1.20;1.00
21216;DHT22;10765;50.954;5.322;2023-04-03T02:05:13;1.20;99.90
21216;DHT22;10765;50.954;5.322;2023-04-03T02:07:41;1.20;1.00
21216;DHT22;10765;50.954;5.322;2023-04-03T02:10:08;1.10;99.90
21216;DHT22;10765;50.954;5.322;2023-04-03T02:12:35;1.10;1.00
21216;DHT22;10765;50.954;5.322;2023-04-03T02:15:03;1.00;1.00
21216;DHT22;10765;50.954;5.322;2023-04-03T02:17:30;1.00;1.00
21216;DHT22;10765;50.954;5.322;2023-04-03T02:19:57;1.00;1.00
21216;DHT22;10765;50.954;5.322;2023-04-03T02:22:24;1.00;1.00
21216;DHT22;10765;50.954;5.322;2023-04-03T02:24:52;0.90;1.00
21216;DHT22;10765;50.954;5.322;2023-04-03T02:27:19;0.90;1.00
21216;DHT22;10765;50.954;5.322;2023-04-03T02:29:46;0.90;99.90
21216;DHT22;10765;50.954;5.322;2023-04-03T02:32:13;0.90;1.00
21216;DHT22;10765;50.954;5.322;2023-04-03T02:34:40;0.90;1.00
21216;DHT22;10765;50.954;5.322;2023-04-03T02:37:07;0.90;1.00
21216;DHT22;10765;50.954;5.322;2023-04-03T02:39:34;0.80;1.00
21216;DHT22;10765;50.954;5.322;2023-04-03T02:42:02;0.80;1.00
21216;DHT22;10765;50.954;5.322;2023-04-03T02:44:29;0.70;1.00
21216;DHT22;10765;50.954;5.322;2023-04-03T02:46:56;0.70;12.20
21216;DHT22;10765;50.954;5.322;2023-04-03T02:49:23;0.60;99.90
21216;DHT22;10765;50.954;5.322;2023-04-03T02:51:50;0.50;99.90
21216;DHT22;10765;50.954;5.322;2023-04-03T02:54:17;0.50;1.00
21216;DHT22;10765;50.954;5.322;2023-04-03T02:56:44;0.40;1.00
21216;DHT22;10765;50.954;5.322;2023-04-03T02:59:12;0.30;1.00
21216;DHT22;10765;50.954;5.322;2023-04-03T03:01:39;0.40;35.90
21216;DHT22;10765;50.954;5.322;2023-04-03T03:04:06;0.40;94.00
21216;DHT22;10765;50.954;5.322;2023-04-03T03:06:33;0.40;1.00
21216;DHT22;10765;50.954;5.322;2023-04-03T03:09:00;0.40;1.00
21216;DHT22;10765;50.954;5.322;2023-04-03T03:11:27;0.40;1.00
21216;DHT22;10765;50.954;5.322;2023-04-03T03:13:57;0.40;99.90
21216;DHT22;10765;50.954;5.322;2023-04-03T03:16:26;0.40;99.90
21216;DHT22;10765;50.954;5.322;2023-04-03T03:18:53;0.40;99.90
21216;DHT22;10765;50.954;5.322;2023-04-03T03:21:20;0.30;99.90
21216;DHT22;10765;50.954;5.322;2023-04-03T03:23:47;0.40;1.00
21216;DHT22;10765;50.954;5.322;2023-04-03T03:26:14;0.30;99.90
21216;DHT22;10765;50.954;5.322;2023-04-03T03:28:41;0.30;99.90
21216;DHT22;10765;50.954;5.322;2023-04-03T03:31:09;0.30;1.00
21216;DHT22;10765;50.954;5.322;2023-04-03T03:33:39;0.30;1.00
21216;DHT22;10765;50.954;5.322;2023-04-03T03:36:06;0.20;99.90
21216;DHT22;10765;50.954;5.322;2023-04-03T03:38:33;0.10;1.00
21216;DHT22;10765;50.954;5.322;2023-04-03T03:41:00;0.20;99.90
21216;DHT22;10765;50.954;5.322;2023-04-03T03:43:27;0.10;1.00
21216;DHT22;10765;50.954;5.322;2023-04-03T03:45:55;0.10;16.40
21216;DHT22;10765;50.954;5.322;2023-04-03T03:48:22;0.10;99.90
21216;DHT22;10765;50.954;5.322;2023-04-03T03:50:50;0.20;99.90
21216;DHT22;10765;50.954;5.322;2023-04-03T03:53:17;0.20;99.90
21216;DHT22;10765;50.954;5.322;2023-04-03T03:55:44;0.20;99.90
21216;DHT22;10765;50.954;5.322;2023-04-03T03:58:11;0.10;1.00
21216;DHT22;10765;50.954;5.322;2023-04-03T04:00:38;0.10;1.00
21216;DHT22;10765;50.954;5.322;2023-04-03T04:03:05;0.10;99.90
21216;DHT22;10765;50.954;5.322;2023-04-03T04:05:32;0.10;99.90
21216;DHT22;10765;50.954;5.322;2023-04-03T04:08:00;0.20;99.90
21216;DHT22;10765;50.954;5.322;2023-04-03T04:10:27;0.10;1.00
21216;DHT22;10765;50.954;5.322;2023-04-03T04:12:54;0.10;1.00
21216;DHT22;10765;50.954;5.322;2023-04-03T04:15:21;0.10;1.00
21216;DHT22;10765;50.954;5.322;2023-04-03T04:17:49;0.10;1.00
21216;DHT22;10765;50.954;5.322;2023-04-03T04:20:16;0.10;1.00
21216;DHT22;10765;50.954;5.322;2023-04-03T04:22:43;0.10;1.00
21216;DHT22;10765;50.954;5.322;2023-04-03T04:25:11;0.10;1.00
21216;DHT22;10765;50.954;5.322;2023-04-03T04:27:38;0.10;1.00
21216;DHT22;10765;50.954;5.322;2023-04-03T04:30:06;0.10;1.00
21216;DHT22;10765;50.954;5.322;2023-04-03T04:32:33;0.20;99.90
21216;DHT22;10765;50.954;5.322;2023-04-03T04:35:01;0.20;1.00
21216;DHT22;10765;50.954;5.322;2023-04-03T04:37:28;0.10;99.90
21216;DHT22;10765;50.954;5.322;2023-04-03T04:39:55;0.10;99.90
21216;DHT22;10765;50.954;5.322;2023-04-03T04:42:23;0.10;1.00
21216;DHT22;10765;50.954;5.322;2023-04-03T04:44:50;0.10;1.00
21216;DHT22;10765;50.954;5.322;2023-04-03T04:47:17;0.10;99.90
21216;DHT22;10765;50.954;5.322;2023-04-03T04:49:44;0.10;99.90
21216;DHT22;10765;50.954;5.322;2023-04-03T04:52:12;0.10;1.00
21216;DHT22;10765;50.954;5.322;2023-04-03T04:54:39;0.10;1.00
21216;DHT22;10765;50.954;5.322;2023-04-03T04:57:06;0.20;1.00
21216;DHT22;10765;50.954;5.322;2023-04-03T04:59:35;0.20;1.00
21216;DHT22;10765;50.954;5.322;2023-04-03T05:02:01;0.20;1.00
21216;DHT22;10765;50.954;5.322;2023-04-03T05:04:28;0.20;99.90
21216;DHT22;10765;50.954;5.322;2023-04-03T05:06:55;0.20;1.00
21216;DHT22;10765;50.954;5.322;2023-04-03T05:09:22;0.10;99.90
21216;DHT22;10765;50.954;5.322;2023-04-03T05:11:49;0.10;1.00
21216;DHT22;10765;50.954;5.322;2023-04-03T05:14:16;0.20;1.00
21216;DHT22;10765;50.954;5.322;2023-04-03T05:16:44;0.20;1.00
21216;DHT22;10765;50.954;5.322;2023-04-03T05:19:12;0.20;99.90
21216;DHT22;10765;50.954;5.322;2023-04-03T05:21:39;0.30;1.00
21216;DHT22;10765;50.954;5.322;2023-04-03T05:24:06;0.40;1.00
21216;DHT22;10765;50.954;5.322;2023-04-03T05:26:34;0.50;99.90
21216;DHT22;10765;50.954;5.322;2023-04-03T05:29:02;0.50;99.90
21216;DHT22;10765;50.954;5.322;2023-04-03T05:31:29;0.50;90.60
21216;DHT22;10765;50.954;5.322;2023-04-03T05:33:57;0.60;99.90
21216;DHT22;10765;50.954;5.322;2023-04-03T05:36:24;0.60;1.00
21216;DHT22;10765;50.954;5.322;2023-04-03T05:38:52;0.70;99.90
21216;DHT22;10765;50.954;5.322;2023-04-03T05:41:19;0.80;99.90
21216;DHT22;10765;50.954;5.322;2023-04-03T05:43:47;1.00;1.00
21216;DHT22;10765;50.954;5.322;2023-04-03T05:46:16;1.10;56.80
21216;DHT22;10765;50.954;5.322;2023-04-03T05:48:44;1.40;99.90
21216;DHT22;10765;50.954;5.322;2023-04-03T05:51:16;1.70;1.00
21216;DHT22;10765;50.954;5.322;2023-04-03T05:53:43;1.90;1.00
21216;DHT22;10765;50.954;5.322;2023-04-03T05:56:11;2.20;9.20
21216;DHT22;10765;50.954;5.322;2023-04-03T05:58:38;2.70;99.90
21216;DHT22;10765;50.954;5.322;2023-04-03T06:01:05;3.20;99.90
21216;DHT22;10765;50.954;5.322;2023-04-03T06:03:32;3.60;1.00
21216;DHT22;10765;50.954;5.322;2023-04-03T06:05:59;3.80;1.00
21216;DHT22;10765;50.954;5.322;2023-04-03T06:08:30;4.40;1.00
21216;DHT22;10765;50.954;5.322;2023-04-03T06:10:57;4.70;1.00
21216;DHT22;10765;50.954;5.322;2023-04-03T06:13:24;5.30;99.90
21216;DHT22;10765;50.954;5.322;2023-04-03T06:15:51;5.70;99.90
21216;DHT22;10765;50.954;5.322;2023-04-03T06:18:18;6.00;99.90
21216;DHT22;10765;50.954;5.322;2023-04-03T06:20:45;6.50;99.90
21216;DHT22;10765;50.954;5.322;2023-04-03T06:23:12;6.50;48.80
21216;DHT22;10765;50.954;5.322;2023-04-03T06:25:40;7.10;37.60
21216;DHT22;10765;50.954;5.322;2023-04-03T06:28:08;7.30;7.60
21216;DHT22;10765;50.954;5.322;2023-04-03T06:30:36;7.40;1.00
21216;DHT22;10765;50.954;5.322;2023-04-03T06:33:03;7.70;1.00
21216;DHT22;10765;50.954;5.322;2023-04-03T06:35:30;8.30;1.00
21216;DHT22;10765;50.954;5.322;2023-04-03T06:37:57;8.80;1.00
21216;DHT22;10765;50.954;5.322;2023-04-03T06:40:25;8.90;1.00
21216;DHT22;10765;50.954;5.322;2023-04-03T06:42:53;9.10;1.00
21216;DHT22;10765;50.954;5.322;2023-04-03T06:45:20;9.80;1.00
21216;DHT22;10765;50.954;5.322;2023-04-03T06:47:47;9.90;1.00
21216;DHT22;10765;50.954;5.322;2023-04-03T06:50:14;10.30;1.00
21216;DHT22;10765;50.954;5.322;2023-04-03T06:52:41;10.60;1.00
21216;DHT22;10765;50.954;5.322;2023-04-03T06:55:09;10.40;1.00
21216;DHT22;10765;50.954;5.322;2023-04-03T06:57:36;10.80;1.00
21216;DHT22;10765;50.954;5.322;2023-04-03T07:00:06;11.40;1.00
21216;DHT22;10765;50.954;5.322;2023-04-03T07:02:34;11.30;1.00
21216;DHT22;10765;50.954;5.322;2023-04-03T07:05:02;11.80;1.00
21216;DHT22;10765;50.954;5.322;2023-04-03T07:07:29;12.10;1.00
21216;DHT22;10765;50.954;5.322;2023-04-03T07:09:56;12.60;1.00
21216;DHT22;10765;50.954;5.322;2023-04-03T07:12:23;13.40;1.00
21216;DHT22;10765;50.954;5.322;2023-04-03T07:14:50;13.20;1.00
21216;DHT22;10765;50.954;5.322;2023-04-03T07:17:18;12.50;1.00
21216;DHT22;10765;50.954;5.322;2023-04-03T07:19:45;12.30;1.00
21216;DHT22;10765;50.954;5.322;2023-04-03T07:22:12;12.00;1.00
21216;DHT22;10765;50.954;5.322;2023-04-03T07:24:39;12.00;1.00
21216;DHT22;10765;50.954;5.322;2023-04-03T07:27:06;12.30;1.00
21216;DHT22;10765;50.954;5.322;2023-04-03T07:29:34;12.30;1.00
21216;DHT22;10765;50.954;5.322;2023-04-03T07:32:01;12.10;1.00
21216;DHT22;10765;50.954;5.322;2023-04-03T07:34:29;11.90;1.00
21216;DHT22;10765;50.954;5.322;2023-04-03T07:36:57;12.80;1.00
21216;DHT22;10765;50.954;5.322;2023-04-03T07:39:24;12.40;1.00
21216;DHT22;10765;50.954;5.322;2023-04-03T07:41:51;12.90;1.00
21216;DHT22;10765;50.954;5.322;2023-04-03T07:44:18;13.20;1.00
21216;DHT22;10765;50.954;5.322;2023-04-03T07:46:45;13.20;1.00
21216;DHT22;10765;50.954;5.322;2023-04-03T07:49:12;13.50;1.00
21216;DHT22;10765;50.954;5.322;2023-04-03T07:51:40;13.30;1.00
21216;DHT22;10765;50.954;5.322;2023-04-03T07:54:07;13.00;1.00
21216;DHT22;10765;50.954;5.322;2023-04-03T07:56:34;13.70;1.00
21216;DHT22;10765;50.954;5.322;2023-04-03T07:59:01;14.30;1.00
21216;DHT22;10765;50.954;5.322;2023-04-03T08:01:28;14.70;1.00
21216;DHT22;10765;50.954;5.322;2023-04-03T08:03:57;15.10;1.00
21216;DHT22;10765;50.954;5.322;2023-04-03T08:06:24;14.90;1.00
21216;DHT22;10765;50.954;5.322;2023-04-03T08:08:53;14.90;1.00
21216;DHT22;10765;50.954;5.322;2023-04-03T08:11:20;15.50;1.00
21216;DHT22;10765;50.954;5.322;2023-04-03T08:13:46;15.30;1.00
21216;DHT22;10765;50.954;5.322;2023-04-03T08:16:17;14.80;1.00
21216;DHT22;10765;50.954;5.322;2023-04-03T08:18:44;14.50;1.00
21216;DHT22;10765;50.954;5.322;2023-04-03T08:21:12;14.70;1.00
21216;DHT22;10765;50.954;5.322;2023-04-03T08:23:39;14.80;1.00
21216;DHT22;10765;50.954;5.322;2023-04-03T08:26:11;15.10;1.00
21216;DHT22;10765;50.954;5.322;2023-04-03T08:28:38;14.30;1.00
21216;DHT22;10765;50.954;5.322;2023-04-03T08:31:08;14.40;1.00
21216;DHT22;10765;50.954;5.322;2023-04-03T08:33:36;14.30;1.00
21216;DHT22;10765;50.954;5.322;2023-04-03T08:36:04;14.80;1.00
21216;DHT22;10765;50.954;5.322;2023-04-03T08:38:32;16.20;1.00
21216;DHT22;10765;50.954;5.322;2023-04-03T08:41:01;17.20;1.00
21216;DHT22;10765;50.954;5.322;2023-04-03T08:43:36;16.70;1.00
21216;DHT22;10765;50.954;5.322;2023-04-03T08:46:11;16.00;1.00
21216;DHT22;10765;50.954;5.322;2023-04-03T08:48:41;17.20;1.00
21216;DHT22;10765;50.954;5.322;2023-04-03T08:51:13;17.20;1.00
21216;DHT22;10765;50.954;5.322;2023-04-03T08:53:45;17.30;1.00
21216;DHT22;10765;50.954;5.322;2023-04-03T08:56:14;18.30;1.00
21216;DHT22;10765;50.954;5.322;2023-04-03T08:58:48;17.80;1.00
21216;DHT22;10765;50.954;5.322;2023-04-03T09:01:19;17.40;1.00
21216;DHT22;10765;50.954;5.322;2023-04-03T09:03:47;17.70;1.00
21216;DHT22;10765;50.954;5.322;2023-04-03T09:06:17;18.20;1.00
21216;DHT22;10765;50.954;5.322;2023-04-03T09:08:49;19.00;1.00
21216;DHT22;10765;50.954;5.322;2023-04-03T09:11:23;18.90;1.00
21216;DHT22;10765;50.954;5.322;2023-04-03T09:13:57;17.50;1.00
21216;DHT22;10765;50.954;5.322;2023-04-03T09:16:35;17.00;1.00
21216;DHT22;10765;50.954;5.322;2023-04-03T09:19:11;17.50;1.00
21216;DHT22;10765;50.954;5.322;2023-04-03T09:21:42;18.10;1.00
21216;DHT22;10765;50.954;5.322;2023-04-03T09:24:11;18.60;1.00
21216;DHT22;10765;50.954;5.322;2023-04-03T09:26:42;18.10;1.00
21216;DHT22;10765;50.954;5.322;2023-04-03T09:29:16;17.10;1.00
21216;DHT22;10765;50.954;5.322;2023-04-03T09:31:44;17.70;1.00
21216;DHT22;10765;50.954;5.322;2023-04-03T09:34:20;19.00;1.00
21216;DHT22;10765;50.954;5.322;2023-04-03T09:36:49;19.30;1.00
21216;DHT22;10765;50.954;5.322;2023-04-03T09:39:19;19.40;1.00
21216;DHT22;10765;50.954;5.322;2023-04-03T09:42:02;20.30;1.00
21216;DHT22;10765;50.954;5.322;2023-04-03T09:44:32;20.10;1.00
21216;DHT22;10765;50.954;5.322;2023-04-03T09:46:59;20.50;1.00
21216;DHT22;10765;50.954;5.322;2023-04-03T09:49:43;20.70;1.00
21216;DHT22;10765;50.954;5.322;2023-04-03T09:52:19;20.00;1.00
21216;DHT22;10765;50.954;5.322;2023-04-03T09:54:46;19.10;1.00
21216;DHT22;10765;50.954;5.322;2023-04-03T09:57:13;19.00;1.00
21216;DHT22;10765;50.954;5.322;2023-04-03T09:59:46;19.60;1.00
21216;DHT22;10765;50.954;5.322;2023-04-03T10:02:38;18.90;1.00
21216;DHT22;10765;50.954;5.322;2023-04-03T10:05:27;19.70;1.00
21216;DHT22;10765;50.954;5.322;2023-04-03T10:08:07;19.90;1.00
21216;DHT22;10765;50.954;5.322;2023-04-03T10:10:35;20.40;1.00
21216;DHT22;10765;50.954;5.322;2023-04-03T10:13:07;21.30;1.00
21216;DHT22;10765;50.954;5.322;2023-04-03T10:15:42;20.80;1.00
21216;DHT22;10765;50.954;5.322;2023-04-03T10:18:29;19.30;1.00
21216;DHT22;10765;50.954;5.322;2023-04-03T10:21:02;19.40;1.00
21216;DHT22;10765;50.954;5.322;2023-04-03T10:23:35;20.80;1.00
21216;DHT22;10765;50.954;5.322;2023-04-03T10:26:11;21.50;1.00
21216;DHT22;10765;50.954;5.322;2023-04-03T10:28:48;19.90;1.00
21216;DHT22;10765;50.954;5.322;2023-04-03T10:31:21;19.50;1.00
21216;DHT22;10765;50.954;5.322;2023-04-03T10:33:56;19.40;1.00
21216;DHT22;10765;50.954;5.322;2023-04-03T10:36:36;19.00;1.00
21216;DHT22;10765;50.954;5.322;2023-04-03T10:39:17;18.70;1.00
21216;DHT22;10765;50.954;5.322;2023-04-03T10:41:52;19.90;1.00
21216;DHT22;10765;50.954;5.322;2023-04-03T10:44:30;19.10;1.00
21216;DHT22;10765;50.954;5.322;2023-04-03T10:47:04;18.60;1.00
21216;DHT22;10765;50.954;5.322;2023-04-03T10:49:41;18.60;1.00
21216;DHT22;10765;50.954;5.322;2023-04-03T10:52:17;21.20;1.00
21216;DHT22;10765;50.954;5.322;2023-04-03T10:54:53;22.10;1.00
21216;DHT22;10765;50.954;5.322;2023-04-03T10:57:23;21.50;1.00
21216;DHT22;10765;50.954;5.322;2023-04-03T10:59:53;21.40;1.00
21216;DHT22;10765;50.954;5.322;2023-04-03T11:02:26;20.20;1.00
21216;DHT22;10765;50.954;5.322;2023-04-03T11:04:56;18.20;1.00
21216;DHT22;10765;50.954;5.322;2023-04-03T11:07:29;18.70;1.00
21216;DHT22;10765;50.954;5.322;2023-04-03T11:10:03;19.50;1.00
21216;DHT22;10765;50.954;5.322;2023-04-03T11:12:38;20.10;1.00
21216;DHT22;10765;50.954;5.322;2023-04-03T11:15:12;19.20;1.00
21216;DHT22;10765;50.954;5.322;2023-04-03T11:17:45;20.20;1.00
21216;DHT22;10765;50.954;5.322;2023-04-03T11:20:17;21.10;1.00
21216;DHT22;10765;50.954;5.322;2023-04-03T11:22:48;21.10;1.00
21216;DHT22;10765;50.954;5.322;2023-04-03T11:25:20;21.80;1.00
21216;DHT22;10765;50.954;5.322;2023-04-03T11:27:52;21.80;1.00
21216;DHT22;10765;50.954;5.322;2023-04-03T11:30:24;21.70;1.00
21216;DHT22;10765;50.954;5.322;2023-04-03T11:33:09;21.20;1.00
21216;DHT22;10765;50.954;5.322;2023-04-03T11:35:43;21.10;1.00
21216;DHT22;10765;50.954;5.322;2023-04-03T11:38:17;23.00;1.00
21216;DHT22;10765;50.954;5.322;2023-04-03T11:40:47;23.00;1.00
21216;DHT22;10765;50.954;5.322;2023-04-03T11:43:22;21.50;1.00
21216;DHT22;10765;50.954;5.322;2023-04-03T11:45:54;22.20;1.00
21216;DHT22;10765;50.954;5.322;2023-04-03T11:48:47;20.90;1.00
21216;DHT22;10765;50.954;5.322;2023-04-03T11:54:50;21.10;1.00
21216;DHT22;10765;50.954;5.322;2023-04-03T11:57:49;21.30;1.00
21216;DHT22;10765;50.954;5.322;2023-04-03T12:01:03;22.50;1.00
21216;DHT22;10765;50.954;5.322;2023-04-03T12:10:17;18.70;1.00
21216;DHT22;10765;50.954;5.322;2023-04-03T12:12:56;19.70;1.00
21216;DHT22;10765;50.954;5.322;2023-04-03T12:15:52;19.80;1.00
21216;DHT22;10765;50.954;5.322;2023-04-03T12:21:19;19.30;1.00
21216;DHT22;10765;50.954;5.322;2023-04-03T12:24:04;22.40;1.00
21216;DHT22;10765;50.954;5.322;2023-04-03T12:26:38;21.20;1.00
21216;DHT22;10765;50.954;5.322;2023-04-03T12:29:14;23.00;1.00
21216;DHT22;10765;50.954;5.322;2023-04-03T12:31:50;24.20;1.00
21216;DHT22;10765;50.954;5.322;2023-04-03T12:34:37;21.10;1.00
21216;DHT22;10765;50.954;5.322;2023-04-03T12:37:14;21.00;1.00
21216;DHT22;10765;50.954;5.322;2023-04-03T12:40:02;21.30;1.00
21216;DHT22;10765;50.954;5.322;2023-04-03T12:42:51;20.10;1.00
21216;DHT22;10765;50.954;5.322;2023-04-03T12:45:20;20.60;1.00
21216;DHT22;10765;50.954;5.322;2023-04-03T12:47:49;20.70;1.00
21216;DHT22;10765;50.954;5.322;2023-04-03T12:50:21;20.90;1.00
21216;DHT22;10765;50.954;5.322;2023-04-03T12:52:54;19.80;1.00
21216;DHT22;10765;50.954;5.322;2023-04-03T12:55:23;20.50;1.00
21216;DHT22;10765;50.954;5.322;2023-04-03T12:57:51;21.30;1.00
21216;DHT22;10765;50.954;5.322;2023-04-03T13:00:27;21.50;1.00
21216;DHT22;10765;50.954;5.322;2023-04-03T13:02:54;21.90;1.00
21216;DHT22;10765;50.954;5.322;2023-04-03T13:05:22;23.00;1.00
21216;DHT22;10765;50.954;5.322;2023-04-03T13:07:52;23.20;1.00
21216;DHT22;10765;50.954;5.322;2023-04-03T13:10:22;23.20;1.00
21216;DHT22;10765;50.954;5.322;2023-04-03T13:12:52;20.90;1.00
21216;DHT22;10765;50.954;5.322;2023-04-03T13:15:21;20.00;1.00
21216;DHT22;10765;50.954;5.322;2023-04-03T13:17:48;19.70;1.00
21216;DHT22;10765;50.954;5.322;2023-04-03T13:20:21;20.20;1.00
21216;DHT22;10765;50.954;5.322;2023-04-03T13:22:53;18.90;1.00
21216;DHT22;10765;50.954;5.322;2023-04-03T13:25:21;19.40;1.00
21216;DHT22;10765;50.954;5.322;2023-04-03T13:27:49;18.90;1.00
21216;DHT22;10765;50.954;5.322;2023-04-03T13:30:29;19.40;1.00
21216;DHT22;10765;50.954;5.322;2023-04-03T13:33:00;20.50;1.00
21216;DHT22;10765;50.954;5.322;2023-04-03T13:35:31;20.20;1.00
21216;DHT22;10765;50.954;5.322;2023-04-03T13:38:00;20.70;1.00
21216;DHT22;10765;50.954;5.322;2023-04-03T13:40:27;21.40;1.00
21216;DHT22;10765;50.954;5.322;2023-04-03T13:43:04;23.70;1.00
21216;DHT22;10765;50.954;5.322;2023-04-03T13:45:34;22.10;1.00
21216;DHT22;10765;50.954;5.322;2023-04-03T13:48:16;20.10;1.00
21216;DHT22;10765;50.954;5.322;2023-04-03T13:50:56;19.60;1.00
21216;DHT22;10765;50.954;5.322;2023-04-03T13:53:24;20.20;1.00
21216;DHT22;10765;50.954;5.322;2023-04-03T13:55:56;21.10;1.00
21216;DHT22;10765;50.954;5.322;2023-04-03T13:58:25;20.10;1.00
21216;DHT22;10765;50.954;5.322;2023-04-03T14:00:55;19.20;1.00
21216;DHT22;10765;50.954;5.322;2023-04-03T14:03:24;20.30;1.00
21216;DHT22;10765;50.954;5.322;2023-04-03T14:05:52;20.40;1.00
21216;DHT22;10765;50.954;5.322;2023-04-03T14:08:19;21.00;1.00
21216;DHT22;10765;50.954;5.322;2023-04-03T14:10:47;18.40;1.00
21216;DHT22;10765;50.954;5.322;2023-04-03T14:13:16;18.20;1.00
21216;DHT22;10765;50.954;5.322;2023-04-03T14:15:45;16.70;1.00
21216;DHT22;10765;50.954;5.322;2023-04-03T14:18:17;13.60;1.00
21216;DHT22;10765;50.954;5.322;2023-04-03T14:20:45;11.90;1.00
21216;DHT22;10765;50.954;5.322;2023-04-03T14:23:12;11.60;1.00
21216;DHT22;10765;50.954;5.322;2023-04-03T14:25:40;11.50;20.70
21216;DHT22;10765;50.954;5.322;2023-04-03T14:28:15;11.20;39.20
21216;DHT22;10765;50.954;5.322;2023-04-03T14:30:42;11.20;41.70
21216;DHT22;10765;50.954;5.322;2023-04-03T14:33:16;11.20;52.60
21216;DHT22;10765;50.954;5.322;2023-04-03T14:35:43;11.00;65.60
21216;DHT22;10765;50.954;5.322;2023-04-03T14:38:21;11.10;68.90
21216;DHT22;10765;50.954;5.322;2023-04-03T14:40:49;11.10;73.60
21216;DHT22;10765;50.954;5.322;2023-04-03T14:43:17;11.10;78.00
21216;DHT22;10765;50.954;5.322;2023-04-03T14:45:44;11.10;84.00
21216;DHT22;10765;50.954;5.322;2023-04-03T14:48:18;11.30;78.60
21216;DHT22;10765;50.954;5.322;2023-04-03T14:50:46;10.90;89.90
21216;DHT22;10765;50.954;5.322;2023-04-03T14:53:15;10.70;99.90
21216;DHT22;10765;50.954;5.322;2023-04-03T14:55:43;10.80;99.10
21216;DHT22;10765;50.954;5.322;2023-04-03T14:58:13;10.80;99.60
21216;DHT22;10765;50.954;5.322;2023-04-03T15:00:40;10.70;99.90
21216;DHT22;10765;50.954;5.322;2023-04-03T15:03:13;10.90;99.90
21216;DHT22;10765;50.954;5.322;2023-04-03T15:05:42;11.00;99.90
21216;DHT22;10765;50.954;5.322;2023-04-03T15:08:18;10.90;99.90
21216;DHT22;10765;50.954;5.322;2023-04-03T15:10:45;10.80;99.90
21216;DHT22;10765;50.954;5.322;2023-04-03T15:13:12;10.70;99.90
21216;DHT22;10765;50.954;5.322;2023-04-03T15:15:39;10.70;99.90
21216;DHT22;10765;50.954;5.322;2023-04-03T15:18:09;10.70;99.90
21216;DHT22;10765;50.954;5.322;2023-04-03T15:20:37;10.50;99.90
21216;DHT22;10765;50.954;5.322;2023-04-03T15:23:05;10.40;99.90
21216;DHT22;10765;50.954;5.322;2023-04-03T15:25:32;10.50;99.90
21216;DHT22;10765;50.954;5.322;2023-04-03T15:27:59;10.60;99.90
21216;DHT22;10765;50.954;5.322;2023-04-03T15:30:26;10.60;99.90
21216;DHT22;10765;50.954;5.322;2023-04-03T15:32:53;10.50;99.90
21216;DHT22;10765;50.954;5.322;2023-04-03T15:35:21;10.40;99.90
21216;DHT22;10765;50.954;5.322;2023-04-03T15:37:48;10.40;99.90
21216;DHT22;10765;50.954;5.322;2023-04-03T15:40:16;10.40;99.90
21216;DHT22;10765;50.954;5.322;2023-04-03T15:42:43;10.30;99.90
21216;DHT22;10765;50.954;5.322;2023-04-03T15:45:10;10.30;99.90
21216;DHT22;10765;50.954;5.322;2023-04-03T15:47:37;10.20;99.90
21216;DHT22;10765;50.954;5.322;2023-04-03T15:50:05;10.10;99.90
21216;DHT22;10765;50.954;5.322;2023-04-03T15:52:33;10.10;99.90
21216;DHT22;10765;50.954;5.322;2023-04-03T15:55:00;10.20;99.90
21216;DHT22;10765;50.954;5.322;2023-04-03T15:57:29;10.20;99.90
21216;DHT22;10765;50.954;5.322;2023-04-03T15:59:56;10.10;99.90
21216;DHT22;10765;50.954;5.322;2023-04-03T16:02:23;9.90;99.90
21216;DHT22;10765;50.954;5.322;2023-04-03T16:04:53;9.80;99.90
21216;DHT22;10765;50.954;5.322;2023-04-03T16:07:20;9.80;99.90
21216;DHT22;10765;50.954;5.322;2023-04-03T16:09:47;9.90;99.90
21216;DHT22;10765;50.954;5.322;2023-04-03T16:12:14;9.80;99.90
21216;DHT22;10765;50.954;5.322;2023-04-03T16:14:42;9.70;99.90
21216;DHT22;10765;50.954;5.322;2023-04-03T16:17:09;9.60;99.90